Página principal
METAR-TAF:

METAR-TAF

Aeroportos :

Irkutsk, Rússia

latitude: 52-16N, longitude: 104-19E, altura: 513 m

Observação actual do tempo

O boletim foi feito há 35 minutos, às 01:30 UTC
Vento 4 kt de este
Temperatura 3°C
Humidade 81%
Pressão 1025 hPa
Visibilidade 10 km ou mais
Poucas nuvensa uma altura de 5000 ft, Cumulonimbus.

METAR: UIII 180130Z 08002MPS 9999 FEW050CB 03/00 Q1025 R12/CLRD60 NOSIG RMK QFE726/0968

Hora: 10:05 (02:05 UTC)

Previsão

O boletim foi feito há 3 horas e 5 minutos, às 23:00 UTC
Previsão válida de 18 às 00 UTC a 18 às 24 UTC
Vento 6 kt de su-sudeste
Visibilidade 10 km ou mais
Nuvens dispersasa uma altura de 2000 ft, Cumulonimbus.

TAF: UIII 172300Z 1800/1824 16003MPS 9999 SCT020CB

Observações e previsões do tempo de mais de 4000 aeroportos (mensagens METAR e TAF).

As estações disponíveis são os pontos amarelos e vermelhos sobre o mapa.

Mova o rato sobre o mapa para ver o nome da estação.

Depois clique no ponto para visualizar as observações e previsões meteorológicas.

Para alterar o mapa : clique nos botões verdes com uma cruz preta para aumentar o zoom; no botão verde com uma pitada de zoom; ou nas setas verdes para mapas adjacentes.


METAR-TAF: